sensor_id;sensor_type;location;lat;lon;timestamp;P1;durP1;ratioP1;P2;durP2;ratioP2
74777;SDS011;63298;53.164;8.610;2023-07-29T00:01:30;8.32;;;6.70;;
74777;SDS011;63298;53.164;8.610;2023-07-29T00:03:56;7.45;;;6.63;;
74777;SDS011;63298;53.164;8.610;2023-07-29T00:06:22;8.48;;;7.03;;
74777;SDS011;63298;53.164;8.610;2023-07-29T00:08:47;7.78;;;6.95;;
74777;SDS011;63298;53.164;8.610;2023-07-29T00:11:13;7.30;;;6.22;;
74777;SDS011;63298;53.164;8.610;2023-07-29T00:13:38;7.63;;;6.65;;
74777;SDS011;63298;53.164;8.610;2023-07-29T00:16:03;7.22;;;6.53;;
74777;SDS011;63298;53.164;8.610;2023-07-29T00:18:29;7.63;;;6.50;;
74777;SDS011;63298;53.164;8.610;2023-07-29T00:20:54;6.85;;;6.22;;
74777;SDS011;63298;53.164;8.610;2023-07-29T00:23:19;6.35;;;5.75;;
74777;SDS011;63298;53.164;8.610;2023-07-29T00:25:45;7.32;;;6.22;;
74777;SDS011;63298;53.164;8.610;2023-07-29T00:28:11;8.70;;;5.97;;
74777;SDS011;63298;53.164;8.610;2023-07-29T00:30:37;7.40;;;6.10;;
74777;SDS011;63298;53.164;8.610;2023-07-29T00:33:02;8.43;;;6.32;;
74777;SDS011;63298;53.164;8.610;2023-07-29T00:35:27;6.57;;;5.97;;
74777;SDS011;63298;53.164;8.610;2023-07-29T00:37:53;7.43;;;5.90;;
74777;SDS011;63298;53.164;8.610;2023-07-29T00:40:21;7.30;;;5.97;;
74777;SDS011;63298;53.164;8.610;2023-07-29T00:42:47;6.65;;;5.93;;
74777;SDS011;63298;53.164;8.610;2023-07-29T00:45:14;9.18;;;6.70;;
74777;SDS011;63298;53.164;8.610;2023-07-29T00:47:39;6.88;;;6.18;;
74777;SDS011;63298;53.164;8.610;2023-07-29T00:50:06;6.72;;;5.95;;
74777;SDS011;63298;53.164;8.610;2023-07-29T00:52:32;7.28;;;6.03;;
74777;SDS011;63298;53.164;8.610;2023-07-29T00:54:57;7.32;;;6.07;;
74777;SDS011;63298;53.164;8.610;2023-07-29T00:57:23;8.68;;;6.57;;
74777;SDS011;63298;53.164;8.610;2023-07-29T00:59:49;8.40;;;6.50;;
74777;SDS011;63298;53.164;8.610;2023-07-29T01:02:14;8.35;;;6.20;;
74777;SDS011;63298;53.164;8.610;2023-07-29T01:04:40;6.43;;;5.78;;
74777;SDS011;63298;53.164;8.610;2023-07-29T01:09:50;8.98;;;6.50;;
74777;SDS011;63298;53.164;8.610;2023-07-29T01:12:22;6.35;;;5.75;;
74777;SDS011;63298;53.164;8.610;2023-07-29T01:17:36;14.13;;;6.38;;
74777;SDS011;63298;53.164;8.610;2023-07-29T01:20:11;10.35;;;5.68;;
74777;SDS011;63298;53.164;8.610;2023-07-29T01:22:40;38.53;;;6.32;;
74777;SDS011;63298;53.164;8.610;2023-07-29T01:25:06;21.02;;;5.70;;
74777;SDS011;63298;53.164;8.610;2023-07-29T01:27:32;35.38;;;6.40;;
74777;SDS011;63298;53.164;8.610;2023-07-29T01:29:57;8.27;;;5.60;;
74777;SDS011;63298;53.164;8.610;2023-07-29T01:35:15;39.47;;;6.32;;
74777;SDS011;63298;53.164;8.610;2023-07-29T01:37:48;9.55;;;6.30;;
74777;SDS011;63298;53.164;8.610;2023-07-29T01:40:16;8.02;;;6.28;;
74777;SDS011;63298;53.164;8.610;2023-07-29T01:42:42;13.43;;;6.10;;
74777;SDS011;63298;53.164;8.610;2023-07-29T01:45:08;38.08;;;6.15;;
74777;SDS011;63298;53.164;8.610;2023-07-29T01:47:34;35.17;;;6.88;;
74777;SDS011;63298;53.164;8.610;2023-07-29T01:49:59;17.70;;;7.07;;
74777;SDS011;63298;53.164;8.610;2023-07-29T01:52:24;11.83;;;6.10;;
74777;SDS011;63298;53.164;8.610;2023-07-29T01:54:49;17.50;;;5.85;;
74777;SDS011;63298;53.164;8.610;2023-07-29T01:57:15;14.32;;;6.20;;
74777;SDS011;63298;53.164;8.610;2023-07-29T01:59:40;38.08;;;7.10;;
74777;SDS011;63298;53.164;8.610;2023-07-29T02:02:06;22.73;;;6.47;;
74777;SDS011;63298;53.164;8.610;2023-07-29T02:04:31;43.03;;;6.70;;
74777;SDS011;63298;53.164;8.610;2023-07-29T02:06:56;28.73;;;6.88;;
74777;SDS011;63298;53.164;8.610;2023-07-29T02:09:22;15.48;;;6.32;;
74777;SDS011;63298;53.164;8.610;2023-07-29T02:11:47;17.67;;;6.10;;
74777;SDS011;63298;53.164;8.610;2023-07-29T02:14:12;16.90;;;5.88;;
74777;SDS011;63298;53.164;8.610;2023-07-29T02:16:37;36.92;;;6.78;;
74777;SDS011;63298;53.164;8.610;2023-07-29T02:19:03;41.33;;;6.97;;
74777;SDS011;63298;53.164;8.610;2023-07-29T02:21:28;27.55;;;6.60;;
74777;SDS011;63298;53.164;8.610;2023-07-29T02:23:53;37.65;;;6.43;;
74777;SDS011;63298;53.164;8.610;2023-07-29T02:26:19;12.98;;;5.40;;
74777;SDS011;63298;53.164;8.610;2023-07-29T02:28:44;29.40;;;6.05;;
74777;SDS011;63298;53.164;8.610;2023-07-29T02:31:14;23.27;;;5.50;;
74777;SDS011;63298;53.164;8.610;2023-07-29T02:33:45;13.57;;;5.15;;
74777;SDS011;63298;53.164;8.610;2023-07-29T02:36:12;36.17;;;5.85;;
74777;SDS011;63298;53.164;8.610;2023-07-29T02:38:38;8.98;;;5.18;;
74777;SDS011;63298;53.164;8.610;2023-07-29T02:41:04;17.73;;;5.80;;
74777;SDS011;63298;53.164;8.610;2023-07-29T02:43:30;21.25;;;6.25;;
74777;SDS011;63298;53.164;8.610;2023-07-29T02:45:56;15.45;;;6.38;;
74777;SDS011;63298;53.164;8.610;2023-07-29T02:48:21;8.60;;;5.75;;
74777;SDS011;63298;53.164;8.610;2023-07-29T02:50:47;7.40;;;5.70;;
74777;SDS011;63298;53.164;8.610;2023-07-29T02:53:12;10.35;;;6.45;;
74777;SDS011;63298;53.164;8.610;2023-07-29T02:55:41;8.43;;;6.38;;
74777;SDS011;63298;53.164;8.610;2023-07-29T02:58:07;20.92;;;6.60;;
74777;SDS011;63298;53.164;8.610;2023-07-29T03:00:32;12.00;;;6.30;;
74777;SDS011;63298;53.164;8.610;2023-07-29T03:02:58;12.48;;;6.38;;
74777;SDS011;63298;53.164;8.610;2023-07-29T03:05:26;11.85;;;6.57;;
74777;SDS011;63298;53.164;8.610;2023-07-29T03:07:52;9.18;;;5.88;;
74777;SDS011;63298;53.164;8.610;2023-07-29T03:10:18;8.60;;;6.45;;
74777;SDS011;63298;53.164;8.610;2023-07-29T03:12:43;11.00;;;7.03;;
74777;SDS011;63298;53.164;8.610;2023-07-29T03:15:09;10.70;;;6.93;;
74777;SDS011;63298;53.164;8.610;2023-07-29T03:17:34;9.50;;;7.13;;
74777;SDS011;63298;53.164;8.610;2023-07-29T03:20:00;11.50;;;7.60;;
74777;SDS011;63298;53.164;8.610;2023-07-29T03:22:26;12.85;;;8.40;;
74777;SDS011;63298;53.164;8.610;2023-07-29T03:24:51;14.45;;;9.15;;
74777;SDS011;63298;53.164;8.610;2023-07-29T03:27:16;14.25;;;8.15;;
74777;SDS011;63298;53.164;8.610;2023-07-29T03:29:42;12.77;;;8.25;;
74777;SDS011;63298;53.164;8.610;2023-07-29T03:32:07;15.73;;;8.90;;
74777;SDS011;63298;53.164;8.610;2023-07-29T03:34:33;13.30;;;8.50;;
74777;SDS011;63298;53.164;8.610;2023-07-29T03:36:59;12.18;;;8.95;;
74777;SDS011;63298;53.164;8.610;2023-07-29T03:39:25;11.15;;;8.60;;
74777;SDS011;63298;53.164;8.610;2023-07-29T03:41:50;15.65;;;8.80;;
74777;SDS011;63298;53.164;8.610;2023-07-29T03:44:16;11.07;;;8.45;;
74777;SDS011;63298;53.164;8.610;2023-07-29T03:46:41;11.35;;;8.45;;
74777;SDS011;63298;53.164;8.610;2023-07-29T03:49:07;13.50;;;8.98;;
74777;SDS011;63298;53.164;8.610;2023-07-29T03:51:32;13.30;;;9.10;;
74777;SDS011;63298;53.164;8.610;2023-07-29T03:53:57;11.25;;;8.93;;
74777;SDS011;63298;53.164;8.610;2023-07-29T03:56:23;13.88;;;8.65;;
74777;SDS011;63298;53.164;8.610;2023-07-29T03:58:48;11.98;;;8.85;;
74777;SDS011;63298;53.164;8.610;2023-07-29T04:01:13;13.93;;;9.10;;
74777;SDS011;63298;53.164;8.610;2023-07-29T04:03:39;11.57;;;8.88;;
74777;SDS011;63298;53.164;8.610;2023-07-29T04:06:04;10.40;;;8.75;;
74777;SDS011;63298;53.164;8.610;2023-07-29T04:08:29;10.65;;;8.73;;
74777;SDS011;63298;53.164;8.610;2023-07-29T04:10:55;18.58;;;9.20;;
74777;SDS011;63298;53.164;8.610;2023-07-29T04:13:20;12.57;;;8.50;;
74777;SDS011;63298;53.164;8.610;2023-07-29T04:15:45;12.65;;;8.75;;
74777;SDS011;63298;53.164;8.610;2023-07-29T04:18:11;13.00;;;9.18;;
74777;SDS011;63298;53.164;8.610;2023-07-29T04:20:36;15.07;;;9.20;;
74777;SDS011;63298;53.164;8.610;2023-07-29T04:23:01;13.52;;;9.18;;
74777;SDS011;63298;53.164;8.610;2023-07-29T04:25:27;11.50;;;8.07;;
74777;SDS011;63298;53.164;8.610;2023-07-29T04:27:52;15.93;;;10.13;;
74777;SDS011;63298;53.164;8.610;2023-07-29T04:30:18;15.13;;;9.43;;
74777;SDS011;63298;53.164;8.610;2023-07-29T04:32:43;14.68;;;8.95;;
74777;SDS011;63298;53.164;8.610;2023-07-29T04:35:08;19.83;;;8.85;;
74777;SDS011;63298;53.164;8.610;2023-07-29T04:37:34;14.02;;;9.75;;
74777;SDS011;63298;53.164;8.610;2023-07-29T04:39:59;14.82;;;9.25;;
74777;SDS011;63298;53.164;8.610;2023-07-29T04:42:24;15.20;;;8.85;;
74777;SDS011;63298;53.164;8.610;2023-07-29T04:44:50;12.18;;;8.80;;
74777;SDS011;63298;53.164;8.610;2023-07-29T04:47:15;12.60;;;8.55;;
74777;SDS011;63298;53.164;8.610;2023-07-29T04:49:40;16.13;;;9.60;;
74777;SDS011;63298;53.164;8.610;2023-07-29T04:52:06;11.50;;;8.32;;
74777;SDS011;63298;53.164;8.610;2023-07-29T04:54:31;14.77;;;9.50;;
74777;SDS011;63298;53.164;8.610;2023-07-29T04:56:56;12.57;;;9.13;;
74777;SDS011;63298;53.164;8.610;2023-07-29T04:59:22;14.27;;;9.18;;
74777;SDS011;63298;53.164;8.610;2023-07-29T05:01:47;13.60;;;9.00;;
74777;SDS011;63298;53.164;8.610;2023-07-29T05:04:12;11.50;;;9.15;;
74777;SDS011;63298;53.164;8.610;2023-07-29T05:06:38;14.60;;;9.27;;
74777;SDS011;63298;53.164;8.610;2023-07-29T05:09:16;11.85;;;8.57;;
74777;SDS011;63298;53.164;8.610;2023-07-29T05:11:42;11.95;;;9.00;;
74777;SDS011;63298;53.164;8.610;2023-07-29T05:14:08;12.38;;;8.93;;
74777;SDS011;63298;53.164;8.610;2023-07-29T05:16:33;13.20;;;9.88;;
74777;SDS011;63298;53.164;8.610;2023-07-29T05:18:59;15.00;;;8.80;;
74777;SDS011;63298;53.164;8.610;2023-07-29T05:21:24;14.63;;;9.40;;
74777;SDS011;63298;53.164;8.610;2023-07-29T05:23:49;11.75;;;8.60;;
74777;SDS011;63298;53.164;8.610;2023-07-29T05:26:15;17.02;;;9.32;;
74777;SDS011;63298;53.164;8.610;2023-07-29T05:28:40;11.23;;;8.75;;
74777;SDS011;63298;53.164;8.610;2023-07-29T05:31:05;14.68;;;7.70;;
74777;SDS011;63298;53.164;8.610;2023-07-29T05:33:31;14.73;;;8.55;;
74777;SDS011;63298;53.164;8.610;2023-07-29T05:35:56;11.25;;;8.60;;
74777;SDS011;63298;53.164;8.610;2023-07-29T05:38:21;11.02;;;7.93;;
74777;SDS011;63298;53.164;8.610;2023-07-29T05:40:48;10.95;;;7.97;;
74777;SDS011;63298;53.164;8.610;2023-07-29T05:43:13;11.35;;;8.05;;
74777;SDS011;63298;53.164;8.610;2023-07-29T05:45:39;13.05;;;8.48;;
74777;SDS011;63298;53.164;8.610;2023-07-29T05:48:04;12.70;;;8.95;;
74777;SDS011;63298;53.164;8.610;2023-07-29T05:50:29;13.45;;;8.32;;
74777;SDS011;63298;53.164;8.610;2023-07-29T05:52:55;11.35;;;7.97;;
74777;SDS011;63298;53.164;8.610;2023-07-29T05:55:20;12.02;;;8.02;;
74777;SDS011;63298;53.164;8.610;2023-07-29T05:57:45;10.75;;;8.48;;
74777;SDS011;63298;53.164;8.610;2023-07-29T06:00:11;13.05;;;8.27;;
74777;SDS011;63298;53.164;8.610;2023-07-29T06:02:36;11.75;;;7.35;;
74777;SDS011;63298;53.164;8.610;2023-07-29T06:05:02;12.20;;;7.20;;
74777;SDS011;63298;53.164;8.610;2023-07-29T06:07:27;9.43;;;6.93;;
74777;SDS011;63298;53.164;8.610;2023-07-29T06:09:52;11.00;;;7.30;;
74777;SDS011;63298;53.164;8.610;2023-07-29T06:12:18;9.48;;;6.88;;
74777;SDS011;63298;53.164;8.610;2023-07-29T06:14:43;9.25;;;7.20;;
74777;SDS011;63298;53.164;8.610;2023-07-29T06:17:08;11.65;;;7.65;;
74777;SDS011;63298;53.164;8.610;2023-07-29T06:19:34;9.90;;;6.63;;
74777;SDS011;63298;53.164;8.610;2023-07-29T06:21:59;12.00;;;7.22;;
74777;SDS011;63298;53.164;8.610;2023-07-29T06:24:24;10.98;;;7.00;;
74777;SDS011;63298;53.164;8.610;2023-07-29T06:26:49;10.02;;;7.25;;
74777;SDS011;63298;53.164;8.610;2023-07-29T06:29:15;9.02;;;6.38;;
74777;SDS011;63298;53.164;8.610;2023-07-29T06:31:40;10.35;;;7.68;;
74777;SDS011;63298;53.164;8.610;2023-07-29T06:34:05;9.65;;;6.82;;
74777;SDS011;63298;53.164;8.610;2023-07-29T06:36:31;11.18;;;7.28;;
74777;SDS011;63298;53.164;8.610;2023-07-29T06:38:56;10.05;;;6.88;;
74777;SDS011;63298;53.164;8.610;2023-07-29T06:41:21;13.52;;;7.18;;
74777;SDS011;63298;53.164;8.610;2023-07-29T06:43:47;8.00;;;6.53;;
74777;SDS011;63298;53.164;8.610;2023-07-29T06:46:12;10.25;;;6.80;;
74777;SDS011;63298;53.164;8.610;2023-07-29T06:48:37;7.25;;;6.03;;
74777;SDS011;63298;53.164;8.610;2023-07-29T06:51:09;6.63;;;5.68;;
74777;SDS011;63298;53.164;8.610;2023-07-29T06:53:34;9.05;;;6.20;;
74777;SDS011;63298;53.164;8.610;2023-07-29T06:55:59;7.35;;;5.80;;
74777;SDS011;63298;53.164;8.610;2023-07-29T06:58:25;7.75;;;6.03;;
74777;SDS011;63298;53.164;8.610;2023-07-29T07:00:50;6.82;;;6.13;;
74777;SDS011;63298;53.164;8.610;2023-07-29T07:03:15;13.70;;;6.53;;
74777;SDS011;63298;53.164;8.610;2023-07-29T07:05:40;6.65;;;5.85;;
74777;SDS011;63298;53.164;8.610;2023-07-29T07:08:06;9.32;;;5.60;;
74777;SDS011;63298;53.164;8.610;2023-07-29T07:10:31;7.40;;;5.28;;
74777;SDS011;63298;53.164;8.610;2023-07-29T07:12:56;8.35;;;5.32;;
74777;SDS011;63298;53.164;8.610;2023-07-29T07:15:22;6.65;;;4.88;;
74777;SDS011;63298;53.164;8.610;2023-07-29T07:17:47;6.38;;;4.45;;
74777;SDS011;63298;53.164;8.610;2023-07-29T07:20:12;5.57;;;4.13;;
74777;SDS011;63298;53.164;8.610;2023-07-29T07:22:38;4.97;;;4.10;;
74777;SDS011;63298;53.164;8.610;2023-07-29T07:25:03;3.58;;;3.28;;
74777;SDS011;63298;53.164;8.610;2023-07-29T07:27:29;3.72;;;3.22;;
74777;SDS011;63298;53.164;8.610;2023-07-29T07:29:54;2.70;;;2.50;;
74777;SDS011;63298;53.164;8.610;2023-07-29T07:32:19;4.78;;;2.88;;
74777;SDS011;63298;53.164;8.610;2023-07-29T07:34:45;2.70;;;2.50;;
74777;SDS011;63298;53.164;8.610;2023-07-29T07:37:11;6.15;;;2.28;;
74777;SDS011;63298;53.164;8.610;2023-07-29T07:39:37;2.95;;;2.28;;
74777;SDS011;63298;53.164;8.610;2023-07-29T07:42:02;1.90;;;1.77;;
74777;SDS011;63298;53.164;8.610;2023-07-29T07:44:30;3.55;;;2.10;;
74777;SDS011;63298;53.164;8.610;2023-07-29T07:46:56;2.85;;;2.10;;
74777;SDS011;63298;53.164;8.610;2023-07-29T07:49:21;3.28;;;1.95;;
74777;SDS011;63298;53.164;8.610;2023-07-29T07:51:47;2.03;;;1.92;;
74777;SDS011;63298;53.164;8.610;2023-07-29T07:54:12;4.53;;;1.75;;
74777;SDS011;63298;53.164;8.610;2023-07-29T07:56:38;2.05;;;1.95;;
74777;SDS011;63298;53.164;8.610;2023-07-29T07:59:03;2.72;;;1.45;;
74777;SDS011;63298;53.164;8.610;2023-07-29T08:01:33;4.55;;;1.92;;
74777;SDS011;63298;53.164;8.610;2023-07-29T08:04:02;1.63;;;1.50;;
74777;SDS011;63298;53.164;8.610;2023-07-29T08:06:28;2.03;;;1.45;;
74777;SDS011;63298;53.164;8.610;2023-07-29T08:08:53;2.10;;;1.55;;
74777;SDS011;63298;53.164;8.610;2023-07-29T08:11:19;1.60;;;1.50;;
74777;SDS011;63298;53.164;8.610;2023-07-29T08:13:44;1.52;;;1.30;;
74777;SDS011;63298;53.164;8.610;2023-07-29T08:16:10;5.32;;;1.60;;
74777;SDS011;63298;53.164;8.610;2023-07-29T08:18:35;1.80;;;1.60;;
74777;SDS011;63298;53.164;8.610;2023-07-29T08:21:00;1.80;;;1.70;;
74777;SDS011;63298;53.164;8.610;2023-07-29T08:23:26;2.28;;;1.40;;
74777;SDS011;63298;53.164;8.610;2023-07-29T08:25:55;5.43;;;1.95;;
74777;SDS011;63298;53.164;8.610;2023-07-29T08:28:22;1.38;;;1.27;;
74777;SDS011;63298;53.164;8.610;2023-07-29T08:30:48;5.25;;;1.50;;
74777;SDS011;63298;53.164;8.610;2023-07-29T08:33:13;3.03;;;1.40;;
74777;SDS011;63298;53.164;8.610;2023-07-29T08:35:39;2.13;;;1.55;;
74777;SDS011;63298;53.164;8.610;2023-07-29T08:38:04;1.65;;;1.33;;
74777;SDS011;63298;53.164;8.610;2023-07-29T08:40:30;6.20;;;1.73;;
74777;SDS011;63298;53.164;8.610;2023-07-29T08:42:59;3.10;;;1.73;;
74777;SDS011;63298;53.164;8.610;2023-07-29T08:45:30;2.63;;;1.80;;
74777;SDS011;63298;53.164;8.610;2023-07-29T08:48:00;1.98;;;1.67;;
74777;SDS011;63298;53.164;8.610;2023-07-29T08:50:31;1.73;;;1.63;;
74777;SDS011;63298;53.164;8.610;2023-07-29T08:52:58;2.47;;;1.73;;
74777;SDS011;63298;53.164;8.610;2023-07-29T08:55:24;2.80;;;2.03;;
74777;SDS011;63298;53.164;8.610;2023-07-29T08:57:50;2.85;;;2.20;;
74777;SDS011;63298;53.164;8.610;2023-07-29T09:00:16;2.85;;;1.80;;
74777;SDS011;63298;53.164;8.610;2023-07-29T09:02:42;3.90;;;1.75;;
74777;SDS011;63298;53.164;8.610;2023-07-29T09:05:07;2.35;;;1.67;;
74777;SDS011;63298;53.164;8.610;2023-07-29T09:07:33;1.88;;;1.77;;
74777;SDS011;63298;53.164;8.610;2023-07-29T09:10:01;2.00;;;1.65;;
74777;SDS011;63298;53.164;8.610;2023-07-29T09:12:26;2.47;;;1.77;;
74777;SDS011;63298;53.164;8.610;2023-07-29T09:14:52;5.40;;;1.83;;
74777;SDS011;63298;53.164;8.610;2023-07-29T09:17:17;3.50;;;1.83;;
74777;SDS011;63298;53.164;8.610;2023-07-29T09:19:42;3.05;;;1.50;;
74777;SDS011;63298;53.164;8.610;2023-07-29T09:22:22;4.60;;;1.77;;
74777;SDS011;63298;53.164;8.610;2023-07-29T09:24:47;3.47;;;1.67;;
74777;SDS011;63298;53.164;8.610;2023-07-29T09:27:25;2.05;;;1.40;;
74777;SDS011;63298;53.164;8.610;2023-07-29T09:29:52;2.47;;;1.55;;
74777;SDS011;63298;53.164;8.610;2023-07-29T09:32:19;2.08;;;1.40;;
74777;SDS011;63298;53.164;8.610;2023-07-29T09:34:47;1.30;;;1.20;;
74777;SDS011;63298;53.164;8.610;2023-07-29T09:37:16;2.78;;;2.53;;
74777;SDS011;63298;53.164;8.610;2023-07-29T09:39:48;5.15;;;2.25;;
74777;SDS011;63298;53.164;8.610;2023-07-29T09:42:21;1.85;;;1.63;;
74777;SDS011;63298;53.164;8.610;2023-07-29T09:44:50;6.75;;;2.08;;
74777;SDS011;63298;53.164;8.610;2023-07-29T09:47:19;4.18;;;1.83;;
74777;SDS011;63298;53.164;8.610;2023-07-29T09:49:49;3.88;;;2.10;;
74777;SDS011;63298;53.164;8.610;2023-07-29T09:52:16;2.28;;;1.73;;
74777;SDS011;63298;53.164;8.610;2023-07-29T09:54:45;1.83;;;1.48;;
74777;SDS011;63298;53.164;8.610;2023-07-29T09:57:12;2.05;;;1.35;;
74777;SDS011;63298;53.164;8.610;2023-07-29T09:59:39;1.80;;;1.63;;
74777;SDS011;63298;53.164;8.610;2023-07-29T10:02:05;2.10;;;1.55;;
74777;SDS011;63298;53.164;8.610;2023-07-29T10:04:38;3.15;;;1.77;;
74777;SDS011;63298;53.164;8.610;2023-07-29T10:07:04;2.05;;;1.80;;
74777;SDS011;63298;53.164;8.610;2023-07-29T10:09:30;2.20;;;1.60;;
74777;SDS011;63298;53.164;8.610;2023-07-29T10:11:56;1.60;;;1.50;;
74777;SDS011;63298;53.164;8.610;2023-07-29T10:14:22;1.67;;;1.38;;
74777;SDS011;63298;53.164;8.610;2023-07-29T10:16:48;2.70;;;1.55;;
74777;SDS011;63298;53.164;8.610;2023-07-29T10:19:15;1.60;;;1.38;;
74777;SDS011;63298;53.164;8.610;2023-07-29T10:21:40;4.88;;;1.63;;
74777;SDS011;63298;53.164;8.610;2023-07-29T10:24:10;2.00;;;1.25;;
74777;SDS011;63298;53.164;8.610;2023-07-29T10:26:40;4.13;;;1.42;;
74777;SDS011;63298;53.164;8.610;2023-07-29T10:29:09;2.33;;;1.45;;
74777;SDS011;63298;53.164;8.610;2023-07-29T10:34:04;2.80;;;1.20;;
74777;SDS011;63298;53.164;8.610;2023-07-29T10:36:30;1.13;;;1.10;;
74777;SDS011;63298;53.164;8.610;2023-07-29T10:38:55;1.38;;;1.27;;
74777;SDS011;63298;53.164;8.610;2023-07-29T10:41:21;4.55;;;1.50;;
74777;SDS011;63298;53.164;8.610;2023-07-29T10:43:47;1.23;;;1.08;;
74777;SDS011;63298;53.164;8.610;2023-07-29T10:46:19;2.42;;;1.13;;
74777;SDS011;63298;53.164;8.610;2023-07-29T10:48:55;5.90;;;1.20;;
74777;SDS011;63298;53.164;8.610;2023-07-29T10:54:10;1.30;;;1.23;;
74777;SDS011;63298;53.164;8.610;2023-07-29T10:56:39;1.35;;;1.08;;
74777;SDS011;63298;53.164;8.610;2023-07-29T11:01:40;2.95;;;1.98;;
74777;SDS011;63298;53.164;8.610;2023-07-29T11:17:37;2.20;;;2.00;;
74777;SDS011;63298;53.164;8.610;2023-07-29T11:20:04;5.20;;;1.33;;
74777;SDS011;63298;53.164;8.610;2023-07-29T11:22:30;1.30;;;1.20;;
74777;SDS011;63298;53.164;8.610;2023-07-29T11:24:56;1.58;;;1.10;;
74777;SDS011;63298;53.164;8.610;2023-07-29T11:27:22;1.20;;;1.10;;
74777;SDS011;63298;53.164;8.610;2023-07-29T11:29:47;2.25;;;1.38;;
74777;SDS011;63298;53.164;8.610;2023-07-29T11:32:13;1.55;;;1.10;;
74777;SDS011;63298;53.164;8.610;2023-07-29T11:34:40;1.55;;;1.05;;
74777;SDS011;63298;53.164;8.610;2023-07-29T11:37:06;1.23;;;1.13;;
74777;SDS011;63298;53.164;8.610;2023-07-29T11:39:32;3.05;;;1.10;;
74777;SDS011;63298;53.164;8.610;2023-07-29T11:41:58;2.65;;;1.23;;
74777;SDS011;63298;53.164;8.610;2023-07-29T11:44:24;2.60;;;1.42;;
74777;SDS011;63298;53.164;8.610;2023-07-29T11:46:50;3.75;;;1.30;;
74777;SDS011;63298;53.164;8.610;2023-07-29T11:49:15;2.67;;;1.38;;
74777;SDS011;63298;53.164;8.610;2023-07-29T11:51:41;1.65;;;1.10;;
74777;SDS011;63298;53.164;8.610;2023-07-29T11:54:08;2.45;;;1.40;;
74777;SDS011;63298;53.164;8.610;2023-07-29T11:56:33;4.22;;;1.40;;
74777;SDS011;63298;53.164;8.610;2023-07-29T11:59:00;1.70;;;1.35;;
74777;SDS011;63298;53.164;8.610;2023-07-29T12:01:27;1.42;;;1.33;;
74777;SDS011;63298;53.164;8.610;2023-07-29T12:03:52;3.97;;;2.00;;
74777;SDS011;63298;53.164;8.610;2023-07-29T12:06:18;2.35;;;1.20;;
74777;SDS011;63298;53.164;8.610;2023-07-29T12:08:44;3.90;;;1.52;;
74777;SDS011;63298;53.164;8.610;2023-07-29T12:11:10;1.90;;;1.45;;
74777;SDS011;63298;53.164;8.610;2023-07-29T12:13:38;2.75;;;1.40;;
74777;SDS011;63298;53.164;8.610;2023-07-29T12:16:06;2.45;;;1.08;;
74777;SDS011;63298;53.164;8.610;2023-07-29T12:18:35;2.63;;;1.52;;
74777;SDS011;63298;53.164;8.610;2023-07-29T12:21:01;2.85;;;1.20;;
74777;SDS011;63298;53.164;8.610;2023-07-29T12:23:27;1.85;;;1.20;;
74777;SDS011;63298;53.164;8.610;2023-07-29T12:25:57;8.35;;;1.38;;
74777;SDS011;63298;53.164;8.610;2023-07-29T12:28:23;1.55;;;1.30;;
74777;SDS011;63298;53.164;8.610;2023-07-29T12:30:52;1.95;;;1.17;;
74777;SDS011;63298;53.164;8.610;2023-07-29T12:33:36;1.48;;;1.00;;
74777;SDS011;63298;53.164;8.610;2023-07-29T12:36:02;1.73;;;0.95;;
74777;SDS011;63298;53.164;8.610;2023-07-29T12:38:28;4.63;;;1.13;;
74777;SDS011;63298;53.164;8.610;2023-07-29T12:40:53;1.95;;;1.25;;
74777;SDS011;63298;53.164;8.610;2023-07-29T12:43:22;1.83;;;1.30;;
74777;SDS011;63298;53.164;8.610;2023-07-29T12:45:51;2.53;;;1.05;;
74777;SDS011;63298;53.164;8.610;2023-07-29T12:48:16;1.40;;;1.08;;
74777;SDS011;63298;53.164;8.610;2023-07-29T12:50:42;1.90;;;1.25;;
74777;SDS011;63298;53.164;8.610;2023-07-29T12:53:07;3.55;;;1.00;;
74777;SDS011;63298;53.164;8.610;2023-07-29T12:55:34;3.28;;;0.88;;
74777;SDS011;63298;53.164;8.610;2023-07-29T12:57:59;3.67;;;1.20;;
74777;SDS011;63298;53.164;8.610;2023-07-29T13:00:25;2.33;;;1.67;;
74777;SDS011;63298;53.164;8.610;2023-07-29T13:02:50;1.35;;;1.10;;
74777;SDS011;63298;53.164;8.610;2023-07-29T13:05:16;3.72;;;1.35;;
74777;SDS011;63298;53.164;8.610;2023-07-29T13:07:42;1.40;;;1.10;;
74777;SDS011;63298;53.164;8.610;2023-07-29T13:10:08;3.13;;;1.20;;
74777;SDS011;63298;53.164;8.610;2023-07-29T13:12:36;2.85;;;1.27;;
74777;SDS011;63298;53.164;8.610;2023-07-29T13:15:02;1.20;;;1.10;;
74777;SDS011;63298;53.164;8.610;2023-07-29T13:17:28;0.82;;;0.82;;
74777;SDS011;63298;53.164;8.610;2023-07-29T13:19:53;2.88;;;1.20;;
74777;SDS011;63298;53.164;8.610;2023-07-29T13:22:19;1.95;;;1.17;;
74777;SDS011;63298;53.164;8.610;2023-07-29T13:24:45;1.58;;;1.17;;
74777;SDS011;63298;53.164;8.610;2023-07-29T13:27:11;1.08;;;1.02;;
74777;SDS011;63298;53.164;8.610;2023-07-29T13:29:36;1.30;;;1.00;;
74777;SDS011;63298;53.164;8.610;2023-07-29T13:32:01;2.15;;;0.80;;
74777;SDS011;63298;53.164;8.610;2023-07-29T13:34:27;1.67;;;1.38;;
74777;SDS011;63298;53.164;8.610;2023-07-29T13:36:52;1.92;;;0.95;;
74777;SDS011;63298;53.164;8.610;2023-07-29T13:39:18;1.27;;;1.15;;
74777;SDS011;63298;53.164;8.610;2023-07-29T13:41:43;1.50;;;1.05;;
74777;SDS011;63298;53.164;8.610;2023-07-29T13:44:09;1.83;;;0.80;;
74777;SDS011;63298;53.164;8.610;2023-07-29T13:46:34;2.35;;;1.10;;
74777;SDS011;63298;53.164;8.610;2023-07-29T13:49:02;2.47;;;1.17;;
74777;SDS011;63298;53.164;8.610;2023-07-29T13:51:28;6.28;;;1.30;;
74777;SDS011;63298;53.164;8.610;2023-07-29T13:53:53;1.00;;;0.90;;
74777;SDS011;63298;53.164;8.610;2023-07-29T13:56:18;2.17;;;1.02;;
74777;SDS011;63298;53.164;8.610;2023-07-29T13:58:44;1.23;;;1.13;;
74777;SDS011;63298;53.164;8.610;2023-07-29T14:01:09;1.77;;;1.05;;
74777;SDS011;63298;53.164;8.610;2023-07-29T14:03:35;1.98;;;1.10;;
74777;SDS011;63298;53.164;8.610;2023-07-29T14:06:00;2.97;;;1.05;;
74777;SDS011;63298;53.164;8.610;2023-07-29T14:08:25;2.97;;;1.15;;
74777;SDS011;63298;53.164;8.610;2023-07-29T14:10:51;5.95;;;1.48;;
74777;SDS011;63298;53.164;8.610;2023-07-29T14:13:16;2.10;;;1.40;;
74777;SDS011;63298;53.164;8.610;2023-07-29T14:15:41;1.48;;;1.38;;
74777;SDS011;63298;53.164;8.610;2023-07-29T14:18:07;1.70;;;1.13;;
74777;SDS011;63298;53.164;8.610;2023-07-29T14:20:32;1.20;;;1.10;;
74777;SDS011;63298;53.164;8.610;2023-07-29T14:22:58;0.90;;;0.90;;
74777;SDS011;63298;53.164;8.610;2023-07-29T14:25:23;6.18;;;0.90;;
74777;SDS011;63298;53.164;8.610;2023-07-29T14:27:49;0.82;;;0.82;;
74777;SDS011;63298;53.164;8.610;2023-07-29T14:30:14;1.10;;;1.00;;
74777;SDS011;63298;53.164;8.610;2023-07-29T14:32:39;1.75;;;1.08;;
74777;SDS011;63298;53.164;8.610;2023-07-29T14:35:05;0.88;;;0.80;;
74777;SDS011;63298;53.164;8.610;2023-07-29T14:37:31;4.18;;;1.45;;
74777;SDS011;63298;53.164;8.610;2023-07-29T14:39:57;3.90;;;1.65;;
74777;SDS011;63298;53.164;8.610;2023-07-29T14:42:23;3.15;;;1.50;;
74777;SDS011;63298;53.164;8.610;2023-07-29T14:44:48;2.92;;;1.20;;
74777;SDS011;63298;53.164;8.610;2023-07-29T14:47:13;1.58;;;1.48;;
74777;SDS011;63298;53.164;8.610;2023-07-29T14:49:39;4.07;;;1.75;;
74777;SDS011;63298;53.164;8.610;2023-07-29T14:52:05;2.97;;;1.52;;
74777;SDS011;63298;53.164;8.610;2023-07-29T14:54:31;2.70;;;1.63;;
74777;SDS011;63298;53.164;8.610;2023-07-29T14:56:56;3.58;;;1.73;;
74777;SDS011;63298;53.164;8.610;2023-07-29T14:59:22;3.53;;;1.88;;
74777;SDS011;63298;53.164;8.610;2023-07-29T15:01:47;2.63;;;1.67;;
74777;SDS011;63298;53.164;8.610;2023-07-29T15:04:12;3.42;;;1.60;;
74777;SDS011;63298;53.164;8.610;2023-07-29T15:06:38;3.45;;;1.42;;